createdAt,value
2017-01-29T00:00:55.880Z,0
2017-01-29T00:02:05.776Z,0
2017-01-29T00:03:16.110Z,0
2017-01-29T00:04:25.818Z,0
2017-01-29T00:05:35.298Z,0
2017-01-29T00:06:45.188Z,0
2017-01-29T00:07:55.041Z,0
2017-01-29T00:09:05.344Z,0
2017-01-29T00:10:15.489Z,0
2017-01-29T00:11:25.826Z,0
2017-01-29T00:12:36.295Z,0
2017-01-29T00:13:46.561Z,0
2017-01-29T00:14:56.830Z,0
2017-01-29T00:16:06.513Z,0
2017-01-29T00:17:16.856Z,0
2017-01-29T00:18:27.153Z,0
2017-01-29T00:19:37.442Z,0
2017-01-29T00:20:47.293Z,0
2017-01-29T00:21:57.538Z,0
2017-01-29T00:23:07.822Z,0
2017-01-29T00:24:17.716Z,0
2017-01-29T00:25:27.988Z,0
2017-01-29T00:26:38.239Z,0
2017-01-29T00:27:48.788Z,0
2017-01-29T00:28:58.680Z,0
2017-01-29T00:30:08.661Z,0
2017-01-29T00:31:19.004Z,0
2017-01-29T00:32:29.350Z,0
2017-01-29T00:33:39.978Z,0
2017-01-29T00:34:50.269Z,0
2017-01-29T00:36:00.147Z,0
2017-01-29T00:37:10.039Z,0
2017-01-29T00:38:19.941Z,0
2017-01-29T00:39:30.055Z,0
2017-01-29T00:40:40.317Z,0
2017-01-29T00:41:50.627Z,0
2017-01-29T00:43:01.008Z,0
2017-01-29T00:44:11.306Z,0
2017-01-29T00:45:21.870Z,0
2017-01-29T00:46:32.192Z,0
2017-01-29T00:47:42.467Z,0
2017-01-29T00:48:52.726Z,0
2017-01-29T00:50:02.607Z,0
2017-01-29T00:51:12.719Z,0
2017-01-29T00:52:22.976Z,0
2017-01-29T00:53:33.393Z,0
2017-01-29T00:54:43.340Z,0
2017-01-29T00:55:52.783Z,0
2017-01-29T00:57:03.099Z,0
2017-01-29T00:58:13.388Z,0
2017-01-29T00:59:23.677Z,0
2017-01-29T01:00:33.952Z,0
2017-01-29T01:01:44.350Z,0
2017-01-29T01:02:54.911Z,0
2017-01-29T01:04:04.776Z,0
2017-01-29T01:05:14.766Z,0
2017-01-29T01:06:24.430Z,0
2017-01-29T01:07:34.685Z,0
2017-01-29T01:08:44.779Z,0
2017-01-29T01:09:55.026Z,0
2017-01-29T01:11:05.431Z,0
2017-01-29T01:12:15.727Z,0
2017-01-29T01:13:25.211Z,0
2017-01-29T01:14:35.744Z,0
2017-01-29T01:16:17.719Z,0
2017-01-29T01:17:27.969Z,0
2017-01-29T01:18:37.536Z,0
2017-01-29T01:19:48.083Z,0
2017-01-29T01:20:58.354Z,0
2017-01-29T01:22:08.664Z,0
2017-01-29T01:23:19.006Z,0
2017-01-29T01:24:29.313Z,0
2017-01-29T01:25:39.072Z,0
2017-01-29T01:26:49.340Z,0
2017-01-29T01:27:59.618Z,0
2017-01-29T01:29:09.486Z,0
2017-01-29T01:30:19.742Z,0
2017-01-29T01:31:30.257Z,0
2017-01-29T01:32:40.550Z,0
2017-01-29T01:33:50.924Z,0
2017-01-29T01:35:00.874Z,0
2017-01-29T01:36:11.188Z,0
2017-01-29T01:37:21.699Z,0
2017-01-29T01:38:31.165Z,0
2017-01-29T01:39:41.534Z,0
2017-01-29T01:40:51.773Z,0
2017-01-29T01:42:02.047Z,0
2017-01-29T01:43:12.395Z,0
2017-01-29T01:44:22.667Z,0
2017-01-29T01:45:32.125Z,0
2017-01-29T01:46:42.418Z,0
2017-01-29T01:47:52.289Z,0
2017-01-29T01:49:02.454Z,0
2017-01-29T01:50:12.755Z,0
2017-01-29T01:51:23.054Z,0
2017-01-29T01:52:32.912Z,0
2017-01-29T01:53:42.877Z,0
2017-01-29T01:54:53.526Z,0
2017-01-29T01:56:03.030Z,0
2017-01-29T01:57:13.340Z,0
2017-01-29T01:58:23.274Z,0
2017-01-29T01:59:33.605Z,0
2017-01-29T02:00:44.167Z,0
2017-01-29T02:01:54.294Z,0
2017-01-29T02:03:04.618Z,0
2017-01-29T02:04:14.493Z,0
2017-01-29T02:05:24.341Z,0
2017-01-29T02:06:34.457Z,0
2017-01-29T02:07:43.916Z,0
2017-01-29T02:09:25.518Z,0
2017-01-29T02:10:35.792Z,0
2017-01-29T02:11:46.304Z,0
2017-01-29T02:12:56.575Z,0
2017-01-29T02:14:06.868Z,0
2017-01-29T02:15:16.779Z,0
2017-01-29T02:16:26.275Z,0
2017-01-29T02:17:36.813Z,0
2017-01-29T02:18:47.065Z,0
2017-01-29T02:19:57.343Z,0
2017-01-29T02:21:06.794Z,0
2017-01-29T02:22:16.792Z,0
2017-01-29T02:23:27.075Z,0
2017-01-29T02:24:37.389Z,0
2017-01-29T02:25:47.782Z,0
2017-01-29T02:26:57.654Z,0
2017-01-29T02:28:07.920Z,0
2017-01-29T02:29:17.722Z,0
2017-01-29T02:30:28.012Z,0
2017-01-29T02:31:38.245Z,0
2017-01-29T02:32:48.545Z,0
2017-01-29T02:33:58.810Z,0
2017-01-29T02:35:08.947Z,0
2017-01-29T02:36:19.260Z,0
2017-01-29T02:37:29.225Z,0
2017-01-29T02:38:38.759Z,0
2017-01-29T02:39:48.649Z,0
2017-01-29T02:40:58.746Z,0
2017-01-29T02:42:08.645Z,0
2017-01-29T02:43:18.508Z,0
2017-01-29T02:44:28.456Z,0
2017-01-29T02:45:38.759Z,0
2017-01-29T02:46:49.253Z,0
2017-01-29T02:47:59.102Z,0
2017-01-29T02:49:09.419Z,0
2017-01-29T02:50:19.322Z,0
2017-01-29T02:51:29.199Z,0
2017-01-29T02:52:39.705Z,0
2017-01-29T02:53:49.186Z,0
2017-01-29T02:54:59.069Z,0
2017-01-29T02:56:09.359Z,0
2017-01-29T02:57:19.716Z,0
2017-01-29T02:58:30.361Z,0
2017-01-29T02:59:40.622Z,0
2017-01-29T03:00:50.071Z,0
2017-01-29T03:01:59.944Z,0
2017-01-29T03:03:10.216Z,0
2017-01-29T03:04:20.309Z,0
2017-01-29T03:05:30.552Z,0
2017-01-29T03:06:40.392Z,0
2017-01-29T03:07:50.915Z,0
2017-01-29T03:09:01.215Z,0
2017-01-29T03:10:11.727Z,0
2017-01-29T03:11:22.090Z,0
2017-01-29T03:12:32.462Z,0
2017-01-29T03:13:42.341Z,0
2017-01-29T03:14:52.633Z,0
2017-01-29T03:16:02.807Z,0
2017-01-29T03:17:12.676Z,0
2017-01-29T03:18:22.517Z,0
2017-01-29T03:19:32.000Z,0
2017-01-29T03:20:42.253Z,0
2017-01-29T03:21:51.940Z,0
2017-01-29T03:23:02.200Z,0
2017-01-29T03:24:11.677Z,0
2017-01-29T03:25:21.967Z,0
2017-01-29T03:26:32.287Z,0
2017-01-29T03:27:42.856Z,0
2017-01-29T03:28:52.830Z,0
2017-01-29T03:30:03.097Z,0
2017-01-29T03:31:12.972Z,0
2017-01-29T03:32:23.461Z,0
2017-01-29T03:33:33.974Z,0
2017-01-29T03:34:44.280Z,0
2017-01-29T03:35:54.545Z,0
2017-01-29T03:37:04.499Z,0
2017-01-29T03:38:14.815Z,0
2017-01-29T03:39:25.412Z,0
2017-01-29T03:40:35.715Z,0
2017-01-29T03:41:46.016Z,0
2017-01-29T03:42:56.426Z,0
2017-01-29T03:44:06.306Z,0
2017-01-29T03:45:16.383Z,0
2017-01-29T03:46:26.362Z,0
2017-01-29T03:47:36.255Z,0
2017-01-29T03:48:46.568Z,0
2017-01-29T03:49:56.395Z,0
2017-01-29T03:51:06.574Z,0
2017-01-29T03:52:16.930Z,0
2017-01-29T03:53:27.185Z,0
2017-01-29T03:54:37.019Z,0
2017-01-29T03:55:47.294Z,0
2017-01-29T03:56:57.882Z,0
2017-01-29T03:58:08.243Z,0
2017-01-29T03:59:18.475Z,0
2017-01-29T04:00:28.325Z,0
2017-01-29T04:01:37.387Z,0
2017-01-29T04:02:47.931Z,0
2017-01-29T04:03:58.224Z,0
2017-01-29T04:05:08.107Z,0
2017-01-29T04:06:18.422Z,0
2017-01-29T04:07:28.263Z,0
2017-01-29T04:08:37.967Z,0
2017-01-29T04:09:48.228Z,0
2017-01-29T04:10:58.105Z,0
2017-01-29T04:12:07.957Z,0
2017-01-29T04:13:17.835Z,0
2017-01-29T04:14:28.428Z,0
2017-01-29T04:15:38.299Z,0
2017-01-29T04:16:48.577Z,0
2017-01-29T04:17:58.834Z,0
2017-01-29T04:19:09.184Z,0
2017-01-29T04:20:19.772Z,0
2017-01-29T04:21:29.665Z,0
2017-01-29T04:22:39.915Z,0
2017-01-29T04:23:49.792Z,0
2017-01-29T04:25:00.045Z,0
2017-01-29T04:26:10.593Z,0
2017-01-29T04:27:20.427Z,0
2017-01-29T04:28:29.916Z,0
2017-01-29T04:29:40.169Z,0
2017-01-29T04:30:50.020Z,0
2017-01-29T04:32:00.108Z,0
2017-01-29T04:33:09.573Z,0
2017-01-29T04:34:20.062Z,0
2017-01-29T04:35:30.354Z,0
2017-01-29T04:36:40.195Z,0
2017-01-29T04:37:50.889Z,0
2017-01-29T04:39:01.145Z,0
2017-01-29T04:40:11.441Z,0
2017-01-29T04:41:21.696Z,0
2017-01-29T04:42:32.064Z,0
2017-01-29T04:43:42.568Z,0
2017-01-29T04:44:52.836Z,0
2017-01-29T04:46:02.693Z,0
2017-01-29T04:47:11.712Z,0
2017-01-29T04:48:21.964Z,0
2017-01-29T04:49:31.727Z,0
2017-01-29T04:50:41.580Z,0
2017-01-29T04:51:51.834Z,0
2017-01-29T04:53:02.083Z,0
2017-01-29T04:54:12.328Z,0
2017-01-29T04:55:22.509Z,0
2017-01-29T04:56:33.037Z,0
2017-01-29T04:57:42.879Z,0
2017-01-29T04:58:52.748Z,0
2017-01-29T05:00:02.619Z,0
2017-01-29T05:01:13.170Z,0
2017-01-29T05:02:23.145Z,0
2017-01-29T05:03:33.433Z,0
2017-01-29T05:04:43.696Z,0
2017-01-29T05:05:53.600Z,0
2017-01-29T05:07:03.685Z,0
2017-01-29T05:08:13.961Z,0
2017-01-29T05:09:24.264Z,0
2017-01-29T05:10:34.599Z,0
2017-01-29T05:11:43.639Z,0
2017-01-29T05:12:54.150Z,0
2017-01-29T05:14:03.992Z,0
2017-01-29T05:15:14.266Z,0
2017-01-29T05:16:24.134Z,0
2017-01-29T05:17:34.446Z,0
2017-01-29T05:18:45.044Z,0
2017-01-29T05:19:55.365Z,0
2017-01-29T05:21:05.284Z,0
2017-01-29T05:22:15.552Z,0
2017-01-29T05:23:25.850Z,0
2017-01-29T05:24:35.545Z,0
2017-01-29T05:25:45.428Z,0
2017-01-29T05:26:54.884Z,0
2017-01-29T05:28:05.173Z,0
2017-01-29T05:29:15.429Z,0
2017-01-29T05:30:25.528Z,0
2017-01-29T05:31:35.382Z,0
2017-01-29T05:32:44.862Z,0
2017-01-29T05:33:55.103Z,0
2017-01-29T05:35:04.549Z,0
2017-01-29T05:36:14.673Z,0
2017-01-29T05:37:24.978Z,0
2017-01-29T05:38:35.277Z,0
2017-01-29T05:39:45.135Z,0
2017-01-29T05:40:55.412Z,0
2017-01-29T05:42:05.979Z,0
2017-01-29T05:43:16.380Z,0
2017-01-29T05:44:26.256Z,0
2017-01-29T05:45:36.526Z,0
2017-01-29T05:46:46.390Z,0
2017-01-29T05:47:57.054Z,0
2017-01-29T05:49:06.906Z,0
2017-01-29T05:50:16.754Z,0
2017-01-29T05:51:26.595Z,0
2017-01-29T05:52:36.908Z,0
2017-01-29T05:53:47.192Z,0
2017-01-29T05:54:57.147Z,0
2017-01-29T05:56:06.595Z,0
2017-01-29T05:57:16.967Z,0
2017-01-29T05:58:26.404Z,0
2017-01-29T05:59:37.000Z,0
2017-01-29T06:00:46.982Z,0
2017-01-29T06:01:57.323Z,0
2017-01-29T06:03:07.559Z,0
2017-01-29T06:04:17.802Z,0
2017-01-29T06:05:28.345Z,0
2017-01-29T06:06:38.620Z,0
2017-01-29T06:07:48.992Z,0
2017-01-29T06:08:59.392Z,0
2017-01-29T06:10:08.840Z,0
2017-01-29T06:11:18.987Z,0
2017-01-29T06:12:28.828Z,0
2017-01-29T06:13:38.664Z,0
2017-01-29T06:14:48.665Z,0
2017-01-29T06:15:58.910Z,0
2017-01-29T06:17:09.537Z,0
2017-01-29T06:18:19.887Z,0
2017-01-29T06:19:30.302Z,4
2017-01-29T06:20:40.586Z,0
2017-01-29T06:21:50.844Z,0
2017-01-29T06:23:01.554Z,4
2017-01-29T06:24:11.798Z,0
2017-01-29T06:25:21.652Z,4
2017-01-29T06:26:31.904Z,4
2017-01-29T06:27:42.160Z,4
2017-01-29T06:28:52.728Z,8
2017-01-29T06:30:02.613Z,8
2017-01-29T06:31:13.000Z,8
2017-01-29T06:32:23.347Z,12
2017-01-29T06:33:33.606Z,12
2017-01-29T06:34:44.202Z,16
2017-01-29T06:35:54.494Z,20
2017-01-29T06:37:04.761Z,24
2017-01-29T06:38:15.050Z,28
2017-01-29T06:39:25.336Z,36
2017-01-29T06:40:35.850Z,44
2017-01-29T06:41:46.127Z,52
2017-01-29T06:42:56.473Z,60
2017-01-29T06:44:06.421Z,72
2017-01-29T06:45:16.707Z,80
2017-01-29T06:46:27.197Z,96
2017-01-29T06:47:37.468Z,112
2017-01-29T06:48:47.363Z,128
2017-01-29T06:49:57.654Z,152
2017-01-29T06:51:08.032Z,172
2017-01-29T06:52:18.134Z,196
2017-01-29T06:53:27.994Z,224
2017-01-29T06:54:37.454Z,252
2017-01-29T06:55:47.732Z,280
2017-01-29T06:56:57.965Z,312
2017-01-29T06:58:08.552Z,348
2017-01-29T06:59:19.053Z,388
2017-01-29T07:00:29.093Z,440
2017-01-29T07:01:39.449Z,492
2017-01-29T07:02:48.998Z,552
2017-01-29T07:03:59.655Z,616
2017-01-29T07:05:10.009Z,672
2017-01-29T07:06:20.258Z,732
2017-01-29T07:07:30.579Z,792
2017-01-29T07:08:40.434Z,848
2017-01-29T07:09:50.533Z,924
2017-01-29T07:11:00.527Z,1008
2017-01-29T07:12:10.876Z,1092
2017-01-29T07:13:21.197Z,1192
2017-01-29T07:14:31.533Z,1292
2017-01-29T07:15:42.152Z,1384
2017-01-29T07:16:52.540Z,1464
2017-01-29T07:18:02.046Z,1528
2017-01-29T07:19:12.291Z,1564
2017-01-29T07:20:22.527Z,1584
2017-01-29T07:21:32.616Z,1616
2017-01-29T07:22:42.861Z,1632
2017-01-29T07:23:53.118Z,1632
2017-01-29T07:25:03.057Z,1644
2017-01-29T07:26:13.304Z,1648
2017-01-29T07:27:23.933Z,1660
2017-01-29T07:28:33.827Z,1668
2017-01-29T07:29:44.176Z,1676
2017-01-29T07:30:54.431Z,1704
2017-01-29T07:32:04.334Z,1752
2017-01-29T07:33:14.424Z,1816
2017-01-29T07:34:24.316Z,1864
2017-01-29T07:35:34.743Z,1892
2017-01-29T07:36:44.811Z,1936
2017-01-29T07:37:54.743Z,2060
2017-01-29T07:39:04.966Z,2180
2017-01-29T07:40:14.812Z,2276
2017-01-29T07:41:25.082Z,2364
2017-01-29T07:42:35.395Z,2340
2017-01-29T07:43:45.256Z,2404
2017-01-29T07:44:55.979Z,2564
2017-01-29T07:46:06.228Z,2784
2017-01-29T07:47:16.079Z,3016
2017-01-29T07:48:26.139Z,3148
2017-01-29T07:49:36.029Z,3156
2017-01-29T07:50:46.170Z,3108
2017-01-29T07:51:56.540Z,3200
2017-01-29T07:53:06.409Z,3124
2017-01-29T07:54:16.880Z,3108
2017-01-29T07:55:27.129Z,3184
2017-01-29T07:56:37.273Z,3256
2017-01-29T07:57:47.237Z,3364
2017-01-29T07:58:57.523Z,3524
2017-01-29T08:00:07.773Z,3728
2017-01-29T08:01:18.209Z,3784
2017-01-29T08:02:28.744Z,3868
2017-01-29T08:03:39.016Z,3940
2017-01-29T08:04:48.951Z,3960
2017-01-29T08:05:59.238Z,3856
2017-01-29T08:07:08.693Z,3792
2017-01-29T08:08:19.260Z,3740
2017-01-29T08:09:29.118Z,3704
2017-01-29T08:10:38.562Z,3664
2017-01-29T08:11:48.458Z,3596
2017-01-29T08:12:58.805Z,3544
2017-01-29T08:14:08.957Z,3516
2017-01-29T08:15:19.243Z,3544
2017-01-29T08:16:29.530Z,3584
2017-01-29T08:17:39.811Z,3620
2017-01-29T08:18:49.681Z,3660
2017-01-29T08:19:59.776Z,3704
2017-01-29T08:21:10.075Z,3748
2017-01-29T08:22:19.984Z,3816
2017-01-29T08:23:30.248Z,3900
2017-01-29T08:24:40.168Z,3968
2017-01-29T08:25:50.797Z,3972
2017-01-29T08:27:00.663Z,3964
2017-01-29T08:28:10.515Z,3964
2017-01-29T08:29:20.827Z,3972
2017-01-29T08:30:31.080Z,3956
2017-01-29T08:31:41.770Z,3892
2017-01-29T08:32:51.228Z,3844
2017-01-29T08:34:01.641Z,3808
2017-01-29T08:35:12.006Z,3836
2017-01-29T08:36:21.882Z,3840
2017-01-29T08:37:32.381Z,3852
2017-01-29T08:38:41.929Z,3884
2017-01-29T08:39:51.797Z,3916
2017-01-29T08:41:02.099Z,3932
2017-01-29T08:42:12.421Z,3916
2017-01-29T08:43:23.104Z,3944
2017-01-29T08:44:33.416Z,3984
2017-01-29T08:45:43.828Z,4040
2017-01-29T08:46:53.759Z,4084
2017-01-29T08:48:03.213Z,4152
2017-01-29T08:49:13.408Z,4244
2017-01-29T08:50:23.784Z,4368
2017-01-29T08:51:34.052Z,4456
2017-01-29T08:52:44.375Z,4520
2017-01-29T08:53:54.234Z,4588
2017-01-29T08:55:04.377Z,4652
2017-01-29T08:56:14.736Z,4720
2017-01-29T08:57:25.053Z,4820
2017-01-29T08:58:35.319Z,4900
2017-01-29T08:59:45.696Z,4992
2017-01-29T09:00:56.310Z,5088
2017-01-29T09:02:06.615Z,5176
2017-01-29T09:03:16.926Z,5244
2017-01-29T09:04:27.212Z,5292
2017-01-29T09:05:37.163Z,5340
2017-01-29T09:06:47.695Z,5416
2017-01-29T09:07:57.154Z,5472
2017-01-29T09:09:06.647Z,5556
2017-01-29T09:10:16.958Z,5616
2017-01-29T09:11:26.807Z,5700
2017-01-29T09:12:37.040Z,5776
2017-01-29T09:13:47.316Z,5884
2017-01-29T09:14:57.641Z,6020
2017-01-29T09:16:07.632Z,6152
2017-01-29T09:17:18.075Z,6272
2017-01-29T09:18:28.608Z,6332
2017-01-29T09:19:38.929Z,6352
2017-01-29T09:20:49.345Z,6308
2017-01-29T09:21:59.654Z,6316
2017-01-29T09:23:09.595Z,6352
2017-01-29T09:24:20.172Z,6440
2017-01-29T09:25:30.457Z,6548
2017-01-29T09:26:40.788Z,6688
2017-01-29T09:27:50.674Z,6848
2017-01-29T09:29:00.965Z,6996
2017-01-29T09:30:11.510Z,7180
2017-01-29T09:31:21.798Z,7328
2017-01-29T09:32:32.092Z,7468
2017-01-29T09:33:42.028Z,7564
2017-01-29T09:34:52.336Z,7740
2017-01-29T09:36:02.897Z,7876
2017-01-29T09:37:13.199Z,7980
2017-01-29T09:38:23.518Z,8128
2017-01-29T09:39:33.891Z,8156
2017-01-29T09:40:44.185Z,8132
2017-01-29T09:41:54.414Z,8360
2017-01-29T09:43:04.440Z,8520
2017-01-29T09:44:14.722Z,8468
2017-01-29T09:45:25.056Z,8604
2017-01-29T09:46:34.501Z,8684
2017-01-29T09:47:44.612Z,8660
2017-01-29T09:48:54.547Z,8684
2017-01-29T09:50:04.452Z,8800
2017-01-29T09:51:14.064Z,8972
2017-01-29T09:52:24.407Z,9304
2017-01-29T09:53:34.594Z,9320
2017-01-29T09:54:44.857Z,9260
2017-01-29T09:55:55.202Z,9372
2017-01-29T09:57:04.713Z,9652
2017-01-29T09:58:14.996Z,9920
2017-01-29T09:59:25.153Z,10576
2017-01-29T10:00:35.483Z,11112
2017-01-29T10:01:45.768Z,11476
2017-01-29T10:02:55.622Z,11452
2017-01-29T10:04:05.586Z,11036
2017-01-29T10:05:16.135Z,10720
2017-01-29T10:06:26.511Z,10376
2017-01-29T10:07:36.780Z,10068
2017-01-29T10:08:46.636Z,10036
2017-01-29T10:09:56.557Z,10040
2017-01-29T10:11:07.105Z,10152
2017-01-29T10:12:16.629Z,10428
2017-01-29T10:13:26.935Z,10720
2017-01-29T10:14:37.266Z,11048
2017-01-29T10:15:47.571Z,11572
2017-01-29T10:16:57.703Z,11904
2017-01-29T10:18:08.225Z,12144
2017-01-29T10:19:18.141Z,12100
2017-01-29T10:20:28.050Z,11984
2017-01-29T10:21:38.466Z,12008
2017-01-29T10:22:48.673Z,12196
2017-01-29T10:23:58.960Z,12144
2017-01-29T10:25:08.582Z,12044
2017-01-29T10:26:19.274Z,11780
2017-01-29T10:27:29.620Z,11532
2017-01-29T10:28:40.326Z,11380
2017-01-29T10:29:50.681Z,11152
2017-01-29T10:31:01.087Z,10872
2017-01-29T10:32:11.145Z,10544
2017-01-29T10:33:21.068Z,10224
2017-01-29T10:34:30.780Z,9788
2017-01-29T10:35:41.056Z,9352
2017-01-29T10:36:51.379Z,8788
2017-01-29T10:38:01.774Z,8468
2017-01-29T10:39:11.765Z,8268
2017-01-29T10:40:21.950Z,8232
2017-01-29T10:41:32.292Z,8308
2017-01-29T10:42:42.696Z,8244
2017-01-29T10:43:52.628Z,8224
2017-01-29T10:45:02.951Z,8268
2017-01-29T10:46:13.153Z,8356
2017-01-29T10:47:23.518Z,8292
2017-01-29T10:48:33.475Z,8260
2017-01-29T10:49:43.853Z,8152
2017-01-29T10:50:53.737Z,8164
2017-01-29T10:52:03.981Z,8184
2017-01-29T10:53:13.523Z,8176
2017-01-29T10:54:23.600Z,8036
2017-01-29T10:55:33.901Z,7960
2017-01-29T10:56:43.776Z,7908
2017-01-29T10:57:54.438Z,7984
2017-01-29T10:59:04.734Z,7856
2017-01-29T11:00:15.064Z,7896
2017-01-29T11:01:25.410Z,7920
2017-01-29T11:02:35.385Z,7804
2017-01-29T11:03:45.545Z,7572
2017-01-29T11:04:55.558Z,7188
2017-01-29T11:06:05.824Z,7144
2017-01-29T11:07:15.699Z,6988
2017-01-29T11:08:25.594Z,6780
2017-01-29T11:09:35.712Z,6772
2017-01-29T11:10:46.035Z,6736
2017-01-29T11:11:56.382Z,6584
2017-01-29T11:13:06.828Z,6416
2017-01-29T11:14:17.127Z,6132
2017-01-29T11:15:27.324Z,5828
2017-01-29T11:16:37.180Z,5712
2017-01-29T11:17:47.110Z,5872
2017-01-29T11:18:57.405Z,6136
2017-01-29T11:20:07.790Z,6348
2017-01-29T11:21:18.330Z,6644
2017-01-29T11:22:28.691Z,7020
2017-01-29T11:23:39.166Z,7308
2017-01-29T11:24:49.460Z,7300
2017-01-29T11:25:59.814Z,7300
2017-01-29T11:27:09.531Z,7460
2017-01-29T11:28:19.435Z,7604
2017-01-29T11:29:29.705Z,7456
2017-01-29T11:30:40.117Z,7296
2017-01-29T11:31:50.383Z,7220
2017-01-29T11:33:00.521Z,7412
2017-01-29T11:34:10.821Z,7844
2017-01-29T11:35:21.232Z,8324
2017-01-29T11:36:31.535Z,8660
2017-01-29T11:37:41.799Z,8820
2017-01-29T11:38:51.915Z,9084
2017-01-29T11:40:02.212Z,9248
2017-01-29T11:41:12.617Z,9104
2017-01-29T11:42:23.007Z,8960
2017-01-29T11:43:33.314Z,9132
2017-01-29T11:44:43.929Z,9248
2017-01-29T11:45:54.276Z,9252
2017-01-29T11:47:04.599Z,9364
2017-01-29T11:48:14.473Z,9336
2017-01-29T11:49:24.864Z,9460
2017-01-29T11:50:35.103Z,9432
2017-01-29T11:51:45.559Z,9612
2017-01-29T11:52:55.877Z,9396
2017-01-29T11:54:05.748Z,9212
2017-01-29T11:55:16.035Z,9312
2017-01-29T11:56:26.418Z,9364
2017-01-29T11:57:36.563Z,9444
2017-01-29T11:58:46.840Z,9608
2017-01-29T11:59:56.801Z,9664
2017-01-29T12:01:06.332Z,9448
2017-01-29T12:02:16.693Z,9436
2017-01-29T12:03:27.077Z,9704
2017-01-29T12:04:37.675Z,10164
2017-01-29T12:05:48.005Z,10484
2017-01-29T12:06:58.391Z,10684
2017-01-29T12:08:08.822Z,10700
2017-01-29T12:09:19.107Z,10628
2017-01-29T12:10:29.708Z,11012
2017-01-29T12:11:40.006Z,11528
2017-01-29T12:12:49.915Z,11752
2017-01-29T12:13:59.807Z,12168
2017-01-29T12:15:10.156Z,12392
2017-01-29T12:16:20.502Z,12460
2017-01-29T12:17:30.838Z,12472
2017-01-29T12:18:40.852Z,12608
2017-01-29T12:19:50.716Z,12520
2017-01-29T12:21:01.120Z,12304
2017-01-29T12:22:11.271Z,12104
2017-01-29T12:23:21.211Z,11892
2017-01-29T12:24:31.207Z,11600
2017-01-29T12:25:41.488Z,11292
2017-01-29T12:26:51.807Z,11028
2017-01-29T12:28:02.473Z,11060
2017-01-29T12:29:12.781Z,11136
2017-01-29T12:30:23.174Z,10996
2017-01-29T12:31:33.154Z,10560
2017-01-29T12:32:43.051Z,10172
2017-01-29T12:33:53.753Z,10012
2017-01-29T12:35:04.044Z,10112
2017-01-29T12:36:14.602Z,10408
2017-01-29T12:37:24.556Z,10488
2017-01-29T12:38:34.454Z,10424
2017-01-29T12:39:45.148Z,10408
2017-01-29T12:40:55.692Z,10488
2017-01-29T12:42:06.042Z,10476
2017-01-29T12:43:16.383Z,10344
2017-01-29T12:44:26.342Z,10128
2017-01-29T12:45:37.054Z,9952
2017-01-29T12:46:47.411Z,9680
2017-01-29T12:47:57.394Z,9568
2017-01-29T12:49:07.286Z,9160
2017-01-29T12:50:17.600Z,8844
2017-01-29T12:51:28.165Z,8708
2017-01-29T12:52:38.145Z,8744
2017-01-29T12:53:48.146Z,8828
2017-01-29T12:54:58.050Z,9048
2017-01-29T12:56:08.370Z,9488
2017-01-29T12:57:18.991Z,9932
2017-01-29T12:58:29.321Z,10316
2017-01-29T12:59:39.271Z,10520
2017-01-29T13:00:49.164Z,11048
2017-01-29T13:01:59.508Z,11096
2017-01-29T13:03:10.152Z,10904
2017-01-29T13:04:20.479Z,10676
2017-01-29T13:05:30.792Z,10708
2017-01-29T13:06:40.808Z,10652
2017-01-29T13:07:50.853Z,10404
2017-01-29T13:09:01.419Z,10220
2017-01-29T13:10:11.323Z,9896
2017-01-29T13:11:21.658Z,9656
2017-01-29T13:12:31.579Z,9424
2017-01-29T13:13:41.548Z,9064
2017-01-29T13:14:53.319Z,8340
2017-01-29T13:16:05.291Z,7412
2017-01-29T13:17:15.626Z,6784
2017-01-29T13:18:25.559Z,6364
2017-01-29T13:19:35.440Z,6156
2017-01-29T13:20:46.114Z,6052
2017-01-29T13:21:56.447Z,5932
2017-01-29T13:23:06.819Z,5936
2017-01-29T13:24:17.147Z,6200
2017-01-29T13:25:27.433Z,6516
2017-01-29T13:26:37.646Z,7244
2017-01-29T13:27:48.010Z,7760
2017-01-29T13:28:58.305Z,8292
2017-01-29T13:30:08.338Z,8584
2017-01-29T13:31:18.649Z,8468
2017-01-29T13:32:28.810Z,8472
2017-01-29T13:33:39.145Z,8664
2017-01-29T13:34:49.069Z,8744
2017-01-29T13:35:59.380Z,8432
2017-01-29T13:37:09.309Z,8120
2017-01-29T13:38:19.537Z,7832
2017-01-29T13:39:29.575Z,7420
2017-01-29T13:40:39.477Z,6968
2017-01-29T13:41:49.648Z,6496
2017-01-29T13:42:59.969Z,6112
2017-01-29T13:44:09.549Z,5764
2017-01-29T13:45:19.826Z,5532
2017-01-29T13:46:29.806Z,5452
2017-01-29T13:47:40.459Z,5484
2017-01-29T13:48:50.851Z,5636
2017-01-29T13:50:01.196Z,5812
2017-01-29T13:51:11.381Z,6044
2017-01-29T13:52:21.317Z,6344
2017-01-29T13:53:31.607Z,6692
2017-01-29T13:54:41.930Z,7104
2017-01-29T13:55:52.477Z,7508
2017-01-29T13:57:03.142Z,7856
2017-01-29T13:58:13.120Z,8216
2017-01-29T13:59:23.532Z,8416
2017-01-29T14:00:33.861Z,8532
2017-01-29T14:01:44.202Z,8544
2017-01-29T14:02:54.451Z,8544
2017-01-29T14:04:04.789Z,8496
2017-01-29T14:05:14.797Z,8396
2017-01-29T14:06:25.112Z,8284
2017-01-29T14:07:35.021Z,8060
2017-01-29T14:08:45.612Z,7736
2017-01-29T14:09:55.579Z,7540
2017-01-29T14:11:05.453Z,7328
2017-01-29T14:12:15.387Z,7116
2017-01-29T14:13:25.314Z,6880
2017-01-29T14:14:35.907Z,6712
2017-01-29T14:15:45.824Z,6564
2017-01-29T14:16:55.808Z,6392
2017-01-29T14:18:06.104Z,6268
2017-01-29T14:19:16.422Z,6216
2017-01-29T14:20:25.870Z,6200
2017-01-29T14:21:36.299Z,6184
2017-01-29T14:22:45.854Z,6132
2017-01-29T14:23:56.177Z,6040
2017-01-29T14:25:05.722Z,5960
2017-01-29T14:26:16.255Z,5904
2017-01-29T14:27:26.635Z,5900
2017-01-29T14:28:37.001Z,5924
2017-01-29T14:29:47.456Z,5912
2017-01-29T14:30:57.790Z,5816
2017-01-29T14:32:08.380Z,5648
2017-01-29T14:33:18.804Z,5424
2017-01-29T14:34:29.112Z,5204
2017-01-29T14:35:39.451Z,4988
2017-01-29T14:36:49.838Z,4780
2017-01-29T14:38:00.562Z,4584
2017-01-29T14:39:12.073Z,4400
2017-01-29T14:40:23.433Z,4244
2017-01-29T14:41:33.740Z,4140
2017-01-29T14:42:44.048Z,4076
2017-01-29T14:43:54.634Z,4028
2017-01-29T14:45:05.140Z,3996
2017-01-29T14:46:14.785Z,3996
2017-01-29T14:47:24.694Z,3996
2017-01-29T14:48:34.601Z,3940
2017-01-29T14:49:45.228Z,3828
2017-01-29T14:50:55.554Z,3728
2017-01-29T14:52:05.815Z,3636
2017-01-29T14:53:15.734Z,3564
2017-01-29T14:54:26.090Z,3492
2017-01-29T14:55:36.689Z,3420
2017-01-29T14:56:47.090Z,3316
2017-01-29T14:57:57.493Z,3196
2017-01-29T14:59:07.838Z,3096
2017-01-29T15:00:17.792Z,2968
2017-01-29T15:01:28.347Z,2800
2017-01-29T15:02:37.854Z,2632
2017-01-29T15:03:48.178Z,2484
2017-01-29T15:04:58.600Z,2352
2017-01-29T15:06:08.969Z,2240
2017-01-29T15:07:19.142Z,2136
2017-01-29T15:08:29.455Z,2048
2017-01-29T15:09:39.762Z,1968
2017-01-29T15:10:50.088Z,1896
2017-01-29T15:12:00.111Z,1840
2017-01-29T15:13:10.320Z,1784
2017-01-29T15:14:20.677Z,1728
2017-01-29T15:15:30.208Z,1672
2017-01-29T15:16:40.745Z,1616
2017-01-29T15:17:51.083Z,1552
2017-01-29T15:19:01.714Z,1492
2017-01-29T15:20:12.018Z,1436
2017-01-29T15:21:21.979Z,1404
2017-01-29T15:22:31.444Z,1384
2017-01-29T15:23:41.823Z,1352
2017-01-29T15:24:52.417Z,1316
2017-01-29T15:26:02.744Z,1264
2017-01-29T15:27:12.604Z,1208
2017-01-29T15:28:22.527Z,1132
2017-01-29T15:29:32.858Z,1060
2017-01-29T15:30:43.119Z,1000
2017-01-29T15:31:53.036Z,944
2017-01-29T15:33:03.125Z,892
2017-01-29T15:34:13.412Z,836
2017-01-29T15:35:23.815Z,788
2017-01-29T15:36:34.400Z,748
2017-01-29T15:37:44.692Z,708
2017-01-29T15:38:55.052Z,680
2017-01-29T15:40:05.401Z,660
2017-01-29T15:41:47.794Z,644
2017-01-29T15:42:57.681Z,616
2017-01-29T15:44:07.754Z,576
2017-01-29T15:45:18.160Z,524
2017-01-29T15:46:28.045Z,472
2017-01-29T15:47:38.302Z,428
2017-01-29T15:48:48.635Z,392
2017-01-29T15:49:58.964Z,356
2017-01-29T15:51:09.354Z,320
2017-01-29T15:52:19.677Z,288
2017-01-29T15:53:30.306Z,264
2017-01-29T15:54:40.629Z,244
2017-01-29T15:55:50.773Z,224
2017-01-29T15:57:00.706Z,204
2017-01-29T15:58:11.091Z,180
2017-01-29T15:59:21.706Z,168
2017-01-29T16:00:32.367Z,152
2017-01-29T16:01:42.722Z,136
2017-01-29T16:02:52.633Z,128
2017-01-29T16:04:02.971Z,116
2017-01-29T16:05:13.526Z,104
2017-01-29T16:06:23.924Z,92
2017-01-29T16:07:33.812Z,80
2017-01-29T16:08:43.703Z,72
2017-01-29T16:09:54.030Z,60
2017-01-29T16:11:04.665Z,52
2017-01-29T16:12:14.999Z,44
2017-01-29T16:13:25.316Z,40
2017-01-29T16:14:35.221Z,32
2017-01-29T16:15:45.519Z,24